Pingree Grove, Illinois
Current Conditions -  °F | °C
As of 1:35 AM on Wednesday 26 Nov 2014 (Local Time) from KDKB Reporting Station
Haze Haze  
Wind Chill: 13°   Ceiling: 700
Heat Index: 13°   Visibility: 1mi
Dew Point: 10°   Wind: 0mph
Humidity: 90%   Direction: NA
Pressure: 30.16"   Gusts: NA
Location:  42.0764°N, 88.5255°W
Report Text: KDKB 260735Z AUTO 00000KT 1SM BR VV007 M11/M12 A3016 RMK AO2 T11081121
Loading
Personal Weather Stations






























Interactive Weather Map New forecast layout! Learn more

10-Day Weather Forecast

Advertisements
Track Severe Weather on mobile